Time,TemperatureF,DewpointF,PressureIn,WindDirection,WindDirectionDegrees,WindSpeedMPH,WindSpeedGustMPH,Humidity,HourlyPrecipIn,Conditions,Clouds,dailyrainin,SoftwareType,DateUTC
2013-04-07 00:01:00,35.6,29.7,29.81,ENE,70,0.0,2.0,79,0.00,,---,0.00,VWS V13.01,2013-04-07 06:01:00,
2013-04-07 00:06:00,35.9,30.0,29.81,ENE,70,0.0,0.0,79,0.00,,---,0.00,VWS V13.01,2013-04-07 06:06:00,
2013-04-07 00:11:00,36.0,30.1,29.81,ENE,70,0.0,0.0,79,0.00,,---,0.00,VWS V13.01,2013-04-07 06:11:00,
2013-04-07 00:17:00,36.2,30.3,29.83,ENE,70,0.0,0.0,79,0.00,,---,0.00,VWS V13.01,2013-04-07 06:17:00,
2013-04-07 00:22:00,36.3,30.1,29.83,ENE,70,0.0,0.0,78,0.00,,---,0.00,VWS V13.01,2013-04-07 06:22:00,
2013-04-07 00:27:00,36.5,29.7,29.83,ENE,70,0.0,0.0,76,0.00,,---,0.00,VWS V13.01,2013-04-07 06:27:00,
2013-04-07 00:32:00,36.8,30.0,29.82,ENE,70,0.0,0.0,76,0.00,,---,0.00,VWS V13.01,2013-04-07 06:32:00,
2013-04-07 00:38:00,36.9,30.0,29.82,NE,37,0.0,0.0,76,0.00,,---,0.00,VWS V13.01,2013-04-07 06:38:00,
2013-04-07 00:43:00,36.8,30.0,29.82,NE,37,0.0,0.0,76,0.00,,---,0.00,VWS V13.01,2013-04-07 06:43:00,
2013-04-07 00:48:00,36.5,29.7,29.82,NE,37,0.0,0.0,76,0.00,,---,0.00,VWS V13.01,2013-04-07 06:48:00,
2013-04-07 00:53:00,36.0,29.5,29.82,NE,37,0.0,0.0,77,0.00,,---,0.00,VWS V13.01,2013-04-07 06:53:00,
2013-04-07 00:58:00,35.6,29.4,29.82,NE,37,0.0,0.0,78,0.00,,---,0.00,VWS V13.01,2013-04-07 06:58:00,
2013-04-07 01:04:00,35.2,29.0,29.81,NE,37,0.0,0.0,78,0.00,,---,0.00,VWS V13.01,2013-04-07 07:04:00,
2013-04-07 01:09:00,34.6,28.8,29.81,NE,37,0.0,0.0,79,0.00,,---,0.00,VWS V13.01,2013-04-07 07:09:00,
2013-04-07 01:14:00,34.1,28.6,29.81,NE,37,0.0,0.0,80,0.00,,---,0.00,VWS V13.01,2013-04-07 07:14:00,
2013-04-07 01:19:00,33.8,28.6,29.80,NE,37,0.0,0.0,81,0.00,,---,0.00,VWS V13.01,2013-04-07 07:19:00,
2013-04-07 01:25:00,33.7,28.5,29.80,NE,37,0.0,0.0,81,0.00,,---,0.00,VWS V13.01,2013-04-07 07:25:00,
2013-04-07 01:30:00,33.5,28.6,29.80,NE,37,0.0,0.0,82,0.00,,---,0.00,VWS V13.01,2013-04-07 07:30:00,
2013-04-07 01:35:00,33.4,28.5,29.80,NE,37,0.0,0.0,82,0.00,,---,0.00,VWS V13.01,2013-04-07 07:35:00,
2013-04-07 01:40:00,33.1,28.5,29.80,NE,37,0.0,0.0,83,0.00,,---,0.00,VWS V13.01,2013-04-07 07:40:00,
2013-04-07 01:45:00,33.1,28.5,29.80,NE,37,0.0,0.0,83,0.00,,---,0.00,VWS V13.01,2013-04-07 07:45:00,
2013-04-07 01:51:00,32.9,28.3,29.80,NE,37,0.0,0.0,83,0.00,,---,0.00,VWS V13.01,2013-04-07 07:51:00,
2013-04-07 01:56:00,32.9,28.6,29.80,NE,37,0.0,0.0,84,0.00,,---,0.00,VWS V13.01,2013-04-07 07:56:00,
2013-04-07 02:01:00,33.1,28.8,29.79,NE,37,0.0,0.0,84,0.00,,---,0.00,VWS V13.01,2013-04-07 08:01:00,
2013-04-07 02:07:00,32.9,28.6,29.79,NE,37,0.0,0.0,84,0.00,,---,0.00,VWS V13.01,2013-04-07 08:07:00,
2013-04-07 02:12:00,32.9,28.6,29.79,NE,37,0.0,0.0,84,0.00,,---,0.00,VWS V13.01,2013-04-07 08:12:00,
2013-04-07 02:17:00,32.8,28.2,29.84,NE,37,0.0,0.0,83,0.00,,---,0.00,VWS V13.01,2013-04-07 08:17:00,
2013-04-07 02:22:00,32.8,28.5,29.84,NE,37,0.0,0.0,84,0.00,,---,0.00,VWS V13.01,2013-04-07 08:22:00,
2013-04-07 02:27:00,32.7,28.4,29.84,NE,37,0.0,0.0,84,0.00,,---,0.00,VWS V13.01,2013-04-07 08:27:00,
2013-04-07 02:33:00,32.8,28.5,29.84,NE,37,0.0,0.0,84,0.00,,---,0.00,VWS V13.01,2013-04-07 08:33:00,
2013-04-07 02:38:00,32.8,28.5,29.84,NE,37,0.0,0.0,84,0.00,,---,0.00,VWS V13.01,2013-04-07 08:38:00,
2013-04-07 02:43:00,32.9,28.6,29.84,NE,37,0.0,0.0,84,0.00,,---,0.00,VWS V13.01,2013-04-07 08:43:00,
2013-04-07 02:48:00,32.9,28.6,29.84,NE,37,0.0,0.0,84,0.00,,---,0.00,VWS V13.01,2013-04-07 08:48:00,
2013-04-07 02:53:00,33.1,28.8,29.84,NE,37,0.0,0.0,84,0.00,,---,0.00,VWS V13.01,2013-04-07 08:53:00,
2013-04-07 02:58:00,33.1,28.8,29.84,NE,37,0.0,0.0,84,0.00,,---,0.00,VWS V13.01,2013-04-07 08:58:00,
2013-04-07 03:04:00,33.1,28.8,29.83,NE,37,0.0,0.0,84,0.00,,---,0.00,VWS V13.01,2013-04-07 09:04:00,
2013-04-07 03:09:00,33.2,28.6,29.83,NE,37,0.0,0.0,83,0.00,,---,0.00,VWS V13.01,2013-04-07 09:09:00,
2013-04-07 03:14:00,33.2,28.9,29.83,NE,37,0.0,0.0,84,0.00,,---,0.00,VWS V13.01,2013-04-07 09:14:00,
2013-04-07 03:20:00,33.4,29.1,29.81,NE,37,0.0,0.0,84,0.00,,---,0.00,VWS V13.01,2013-04-07 09:20:00,
2013-04-07 03:25:00,33.4,29.1,29.81,NE,37,0.0,0.0,84,0.00,,---,0.00,VWS V13.01,2013-04-07 09:25:00,
2013-04-07 03:30:00,33.4,28.8,29.80,NE,37,0.0,0.0,83,0.00,,---,0.00,VWS V13.01,2013-04-07 09:30:00,
2013-04-07 03:35:00,33.4,29.1,29.80,NE,37,0.0,0.0,84,0.00,,---,0.00,VWS V13.01,2013-04-07 09:35:00,
2013-04-07 03:41:00,33.5,28.9,29.80,NE,37,0.0,0.0,83,0.00,,---,0.00,VWS V13.01,2013-04-07 09:41:00,
2013-04-07 03:47:00,33.5,28.9,29.80,NE,37,0.0,0.0,83,0.00,,---,0.00,VWS V13.01,2013-04-07 09:47:00,
2013-04-07 03:52:00,33.5,28.9,29.80,NE,37,0.0,0.0,83,0.00,,---,0.00,VWS V13.01,2013-04-07 09:52:00,
2013-04-07 03:57:00,33.5,28.9,29.80,NE,37,0.0,0.0,83,0.00,,---,0.00,VWS V13.01,2013-04-07 09:57:00,
2013-04-07 04:02:00,33.4,28.8,29.79,NE,37,0.0,0.0,83,0.00,,---,0.00,VWS V13.01,2013-04-07 10:02:00,
2013-04-07 04:08:00,33.4,28.8,29.79,NE,37,0.0,0.0,83,0.00,,---,0.00,VWS V13.01,2013-04-07 10:08:00,
2013-04-07 04:13:00,33.2,28.3,29.79,NE,37,0.0,0.0,82,0.00,,---,0.00,VWS V13.01,2013-04-07 10:13:00,
2013-04-07 04:18:00,33.2,28.6,29.80,NE,37,0.0,0.0,83,0.00,,---,0.00,VWS V13.01,2013-04-07 10:18:00,
2013-04-07 04:23:00,33.1,28.5,29.80,NE,37,0.0,0.0,83,0.00,,---,0.00,VWS V13.01,2013-04-07 10:23:00,
2013-04-07 04:29:00,33.1,28.5,29.80,NE,37,0.0,0.0,83,0.00,,---,0.00,VWS V13.01,2013-04-07 10:29:00,
2013-04-07 04:34:00,32.9,28.3,29.80,NE,37,0.0,0.0,83,0.00,,---,0.00,VWS V13.01,2013-04-07 10:34:00,
2013-04-07 04:39:00,33.1,28.5,29.80,NE,37,0.0,0.0,83,0.00,,---,0.00,VWS V13.01,2013-04-07 10:39:00,
2013-04-07 04:44:00,33.1,28.2,29.80,NE,37,0.0,0.0,82,0.00,,---,0.00,VWS V13.01,2013-04-07 10:44:00,
2013-04-07 04:50:00,33.1,28.2,29.79,NE,37,0.0,0.0,82,0.00,,---,0.00,VWS V13.01,2013-04-07 10:50:00,
2013-04-07 04:55:00,33.1,28.2,29.79,NE,37,0.0,1.0,82,0.00,,---,0.00,VWS V13.01,2013-04-07 10:55:00,
2013-04-07 05:00:00,33.2,28.3,29.78,NE,37,0.0,0.0,82,0.00,,---,0.00,VWS V13.01,2013-04-07 11:00:00,
2013-04-07 05:06:00,33.4,28.5,29.78,NE,37,0.0,0.0,82,0.00,,---,0.00,VWS V13.01,2013-04-07 11:06:00,
2013-04-07 05:11:00,33.4,28.5,29.78,NE,37,0.0,0.0,82,0.00,,---,0.00,VWS V13.01,2013-04-07 11:11:00,
2013-04-07 05:17:00,33.4,28.5,29.78,NE,37,0.0,0.0,82,0.00,,---,0.00,VWS V13.01,2013-04-07 11:17:00,
2013-04-07 05:22:00,33.2,28.6,29.78,NE,37,0.0,0.0,83,0.00,,---,0.00,VWS V13.01,2013-04-07 11:22:00,
2013-04-07 05:27:00,33.2,28.6,29.78,NE,37,0.0,0.0,83,0.00,,---,0.00,VWS V13.01,2013-04-07 11:27:00,
2013-04-07 05:32:00,33.4,28.8,29.78,NE,37,0.0,0.0,83,0.00,,---,0.00,VWS V13.01,2013-04-07 11:32:00,
2013-04-07 05:38:00,33.5,28.9,29.78,NE,37,0.0,0.0,83,0.00,,---,0.00,VWS V13.01,2013-04-07 11:38:00,
2013-04-07 05:43:00,33.7,29.1,29.78,NE,37,0.0,0.0,83,0.00,,---,0.00,VWS V13.01,2013-04-07 11:43:00,
2013-04-07 05:48:00,33.7,29.1,29.78,NE,37,0.0,0.0,83,0.00,,---,0.00,VWS V13.01,2013-04-07 11:48:00,
2013-04-07 05:54:00,33.7,29.1,29.78,NE,37,0.0,0.0,83,0.00,,---,0.00,VWS V13.01,2013-04-07 11:54:00,
2013-04-07 06:00:00,33.7,29.1,29.78,NE,37,0.0,0.0,83,0.00,,---,0.00,VWS V13.01,2013-04-07 12:00:00,
2013-04-07 06:05:00,33.7,29.1,29.77,NE,37,0.0,0.0,83,0.00,,---,0.00,VWS V13.01,2013-04-07 12:05:00,
2013-04-07 06:11:00,33.8,29.2,29.77,NE,37,0.0,0.0,83,0.00,,---,0.00,VWS V13.01,2013-04-07 12:11:00,
2013-04-07 06:16:00,34.0,29.4,29.76,NE,37,0.0,0.0,83,0.00,,---,0.00,VWS V13.01,2013-04-07 12:16:00,
2013-04-07 06:21:00,34.0,29.4,29.76,NE,37,0.0,0.0,83,0.00,,---,0.00,VWS V13.01,2013-04-07 12:21:00,
2013-04-07 06:26:00,33.8,29.2,29.76,NE,37,0.0,0.0,83,0.00,,---,0.00,VWS V13.01,2013-04-07 12:26:00,
2013-04-07 06:31:00,34.0,29.4,29.76,NE,37,0.0,0.0,83,0.00,,---,0.00,VWS V13.01,2013-04-07 12:31:00,
2013-04-07 06:37:00,34.0,29.4,29.76,NE,37,0.0,0.0,83,0.00,,---,0.00,VWS V13.01,2013-04-07 12:37:00,
2013-04-07 06:42:00,34.0,29.4,29.76,NE,37,0.0,0.0,83,0.00,,---,0.00,VWS V13.01,2013-04-07 12:42:00,
2013-04-07 06:47:00,34.0,29.4,29.75,NE,37,0.0,0.0,83,0.00,,---,0.00,VWS V13.01,2013-04-07 12:47:00,
2013-04-07 06:52:00,34.0,29.1,29.75,NE,37,0.0,0.0,82,0.00,,---,0.00,VWS V13.01,2013-04-07 12:52:00,
2013-04-07 06:58:00,34.0,29.1,29.75,NE,37,0.0,0.0,82,0.00,,---,0.00,VWS V13.01,2013-04-07 12:58:00,
2013-04-07 07:03:00,34.0,29.1,29.75,NE,37,0.0,0.0,82,0.00,,---,0.00,VWS V13.01,2013-04-07 13:03:00,
2013-04-07 07:09:00,33.8,28.9,29.75,NE,37,0.0,0.0,82,0.00,,---,0.00,VWS V13.01,2013-04-07 13:09:00,
2013-04-07 07:14:00,34.0,29.1,29.75,NE,37,0.0,0.0,82,0.00,,---,0.00,VWS V13.01,2013-04-07 13:14:00,
2013-04-07 07:20:00,33.8,28.6,29.76,NE,37,0.0,0.0,81,0.00,,---,0.00,VWS V13.01,2013-04-07 13:20:00,
2013-04-07 07:25:00,33.8,28.6,29.76,NE,37,0.0,0.0,81,0.00,,---,0.00,VWS V13.01,2013-04-07 13:25:00,
2013-04-07 07:30:00,33.8,28.9,29.75,NE,37,0.0,0.0,82,0.00,,---,0.00,VWS V13.01,2013-04-07 13:30:00,
2013-04-07 07:36:00,33.7,28.8,29.75,NE,37,0.0,0.0,82,0.00,,---,0.00,VWS V13.01,2013-04-07 13:36:00,
2013-04-07 07:41:00,33.7,28.8,29.75,NE,37,0.0,0.0,82,0.00,,---,0.00,VWS V13.01,2013-04-07 13:41:00,
2013-04-07 07:46:00,33.8,28.9,29.75,NE,37,0.0,0.0,82,0.00,,---,0.00,VWS V13.01,2013-04-07 13:46:00,
2013-04-07 07:51:00,33.8,28.9,29.75,NE,37,0.0,0.0,82,0.00,,---,0.00,VWS V13.01,2013-04-07 13:51:00,
2013-04-07 07:56:00,33.8,29.2,29.75,NE,37,0.0,0.0,83,0.00,,---,0.00,VWS V13.01,2013-04-07 13:56:00,
2013-04-07 08:01:00,34.0,29.1,29.75,NE,37,0.0,0.0,82,0.00,,---,0.00,VWS V13.01,2013-04-07 14:01:00,
2013-04-07 08:06:00,34.1,29.2,29.75,NE,37,0.0,0.0,82,0.00,,---,0.00,VWS V13.01,2013-04-07 14:06:00,
2013-04-07 08:12:00,34.3,28.8,29.75,NE,37,0.0,0.0,80,0.00,,---,0.00,VWS V13.01,2013-04-07 14:12:00,
2013-04-07 08:17:00,34.6,29.4,29.74,NE,37,0.0,0.0,81,0.00,,---,0.00,VWS V13.01,2013-04-07 14:17:00,
2013-04-07 08:22:00,34.7,29.2,29.74,NE,37,0.0,0.0,80,0.00,,---,0.00,VWS V13.01,2013-04-07 14:22:00,
2013-04-07 08:27:00,34.9,29.4,29.74,NE,37,0.0,0.0,80,0.00,,---,0.00,VWS V13.01,2013-04-07 14:27:00,
2013-04-07 08:33:00,35.0,29.5,29.73,NE,37,0.0,0.0,80,0.00,,---,0.00,VWS V13.01,2013-04-07 14:33:00,
2013-04-07 08:38:00,35.2,29.7,29.73,NE,37,0.0,0.0,80,0.00,,---,0.00,VWS V13.01,2013-04-07 14:38:00,
2013-04-07 08:44:00,35.5,29.6,29.73,NE,37,0.0,0.0,79,0.00,,---,0.00,VWS V13.01,2013-04-07 14:44:00,
2013-04-07 08:49:00,35.6,29.4,29.71,NE,37,0.0,0.0,78,0.00,,---,0.00,VWS V13.01,2013-04-07 14:49:00,
2013-04-07 08:54:00,35.9,29.7,29.71,NE,37,0.0,0.0,78,0.00,,---,0.00,VWS V13.01,2013-04-07 14:54:00,
2013-04-07 08:59:00,36.0,30.1,29.71,NE,37,0.0,0.0,79,0.00,,---,0.00,VWS V13.01,2013-04-07 14:59:00,
2013-04-07 09:04:00,36.3,30.1,29.71,NE,37,0.0,0.0,78,0.00,,---,0.00,VWS V13.01,2013-04-07 15:04:00,
2013-04-07 09:10:00,36.6,29.8,29.71,NE,37,0.0,1.0,76,0.00,,---,0.00,VWS V13.01,2013-04-07 15:10:00,
2013-04-07 09:15:00,36.9,29.4,29.71,NE,37,0.0,1.0,74,0.00,,---,0.00,VWS V13.01,2013-04-07 15:15:00,
2013-04-07 09:20:00,37.3,29.5,29.71,NE,37,0.0,0.0,73,0.00,,---,0.00,VWS V13.01,2013-04-07 15:20:00,
2013-04-07 09:25:00,37.8,31.6,29.71,NE,37,0.0,1.0,78,0.00,,---,0.00,VWS V13.01,2013-04-07 15:25:00,
2013-04-07 09:31:00,38.2,32.6,29.68,NE,37,0.0,1.0,80,0.00,,---,0.00,VWS V13.01,2013-04-07 15:31:00,
2013-04-07 09:36:00,38.5,31.9,29.68,NE,37,0.0,1.0,77,0.00,,---,0.00,VWS V13.01,2013-04-07 15:36:00,
2013-04-07 09:41:00,38.8,31.2,29.68,NE,37,0.0,3.0,74,0.00,,---,0.00,VWS V13.01,2013-04-07 15:41:00,
2013-04-07 09:46:00,38.9,32.6,29.67,NNE,24,0.0,3.0,78,0.00,,---,0.00,VWS V13.01,2013-04-07 15:46:00,
2013-04-07 09:51:00,39.1,32.2,29.67,NNE,24,0.0,1.0,76,0.00,,---,0.00,VWS V13.01,2013-04-07 15:51:00,
2013-04-07 09:56:00,39.1,31.5,29.67,NNE,24,0.0,2.0,74,0.00,,---,0.00,VWS V13.01,2013-04-07 15:56:00,
2013-04-07 10:02:00,39.1,30.9,29.68,NNE,24,0.0,0.0,72,0.00,,---,0.00,VWS V13.01,2013-04-07 16:02:00,
2013-04-07 10:07:00,38.9,30.7,29.68,NNE,24,0.0,0.0,72,0.00,,---,0.00,VWS V13.01,2013-04-07 16:07:00,
2013-04-07 10:12:00,39.1,30.5,29.68,NNE,24,0.0,0.0,71,0.00,,---,0.00,VWS V13.01,2013-04-07 16:12:00,
2013-04-07 10:17:00,39.2,31.0,29.67,NNE,24,0.0,0.0,72,0.00,,---,0.00,VWS V13.01,2013-04-07 16:17:00,
2013-04-07 10:23:00,39.5,30.5,29.67,NNE,24,0.0,0.0,70,0.00,,---,0.00,VWS V13.01,2013-04-07 16:23:00,
2013-04-07 10:28:00,39.8,31.2,29.67,NNE,24,0.0,0.0,71,0.00,,---,0.00,VWS V13.01,2013-04-07 16:28:00,
2013-04-07 10:33:00,40.2,31.9,29.65,WSW,253,0.0,1.0,72,0.00,,---,0.00,VWS V13.01,2013-04-07 16:33:00,
2013-04-07 10:38:00,40.5,31.5,29.65,NW,319,0.0,1.0,70,0.00,,---,0.00,VWS V13.01,2013-04-07 16:38:00,
2013-04-07 10:43:00,40.6,31.6,29.65,North,355,0.0,1.0,70,0.00,,---,0.00,VWS V13.01,2013-04-07 16:43:00,
2013-04-07 10:48:00,40.9,31.9,29.65,WNW,300,1.0,1.0,70,0.00,,---,0.00,VWS V13.01,2013-04-07 16:48:00,
2013-04-07 10:53:00,41.3,32.6,29.65,NW,317,0.0,1.0,71,0.00,,---,0.00,VWS V13.01,2013-04-07 16:53:00,
2013-04-07 10:59:00,41.9,32.1,29.65,West,279,0.0,2.0,68,0.00,,---,0.00,VWS V13.01,2013-04-07 16:59:00,
2013-04-07 11:04:00,42.3,33.2,29.63,East,86,0.0,1.0,70,0.00,,---,0.00,VWS V13.01,2013-04-07 17:04:00,
2013-04-07 11:09:00,42.8,33.0,29.63,WNW,288,0.0,2.0,68,0.00,,---,0.00,VWS V13.01,2013-04-07 17:09:00,
2013-04-07 11:14:00,42.8,32.2,29.63,NNW,329,0.0,1.0,66,0.00,,---,0.00,VWS V13.01,2013-04-07 17:14:00,
2013-04-07 11:20:00,42.8,32.2,29.63,WNW,296,0.0,2.0,66,0.00,,---,0.00,VWS V13.01,2013-04-07 17:20:00,
2013-04-07 11:25:00,42.8,33.0,29.63,North,5,2.0,3.0,68,0.00,,---,0.00,VWS V13.01,2013-04-07 17:25:00,
2013-04-07 11:30:00,43.3,32.3,29.63,West,280,1.0,2.0,65,0.00,,---,0.00,VWS V13.01,2013-04-07 17:30:00,
2013-04-07 11:35:00,43.6,32.6,29.62,WNW,294,0.0,2.0,65,0.00,,---,0.00,VWS V13.01,2013-04-07 17:35:00,
2013-04-07 11:40:00,44.2,32.8,29.62,East,82,1.0,2.0,64,0.00,,---,0.00,VWS V13.01,2013-04-07 17:40:00,
2013-04-07 11:46:00,44.8,32.2,29.61,NNE,15,0.0,3.0,61,0.00,,---,0.00,VWS V13.01,2013-04-07 17:46:00,
2013-04-07 11:51:00,45.2,33.4,29.61,NNE,15,0.0,3.0,63,0.00,,---,0.00,VWS V13.01,2013-04-07 17:51:00,
2013-04-07 11:57:00,45.4,32.8,29.61,NNE,20,2.0,3.0,61,0.00,,---,0.00,VWS V13.01,2013-04-07 17:57:00,
2013-04-07 12:02:00,45.5,31.6,29.60,WSW,254,0.0,0.0,58,0.00,,---,0.00,VWS V13.01,2013-04-07 18:02:00,
2013-04-07 12:07:00,45.5,32.4,29.60,NE,40,0.0,1.0,60,0.00,,---,0.00,VWS V13.01,2013-04-07 18:07:00,
2013-04-07 12:12:00,45.2,31.7,29.60,WSW,254,0.0,4.0,59,0.00,,---,0.00,VWS V13.01,2013-04-07 18:12:00,
2013-04-07 12:17:00,44.6,31.6,29.60,NNE,30,0.0,5.0,60,0.00,,---,0.00,VWS V13.01,2013-04-07 18:17:00,
2013-04-07 12:23:00,44.5,31.9,29.60,NE,46,1.0,1.0,61,0.00,,---,0.00,VWS V13.01,2013-04-07 18:23:00,
2013-04-07 12:28:00,44.9,32.7,29.60,NW,325,0.0,1.0,62,0.00,,---,0.00,VWS V13.01,2013-04-07 18:28:00,
2013-04-07 12:33:00,46.0,32.5,29.59,NW,311,0.0,4.0,59,0.00,,---,0.00,VWS V13.01,2013-04-07 18:33:00,
2013-04-07 12:38:00,46.2,32.7,29.59,West,271,0.0,6.0,59,0.00,,---,0.00,VWS V13.01,2013-04-07 18:38:00,
2013-04-07 12:44:00,46.2,32.2,29.59,ESE,106,2.0,4.0,58,0.00,,---,0.00,VWS V13.01,2013-04-07 18:44:00,
2013-04-07 12:49:00,46.5,32.5,29.59,West,259,0.0,4.0,58,0.00,,---,0.00,VWS V13.01,2013-04-07 18:49:00,
2013-04-07 12:55:00,46.7,33.6,29.59,ENE,61,0.0,3.0,60,0.00,,---,0.00,VWS V13.01,2013-04-07 18:55:00,
2013-04-07 13:00:00,46.7,32.7,29.59,WSW,247,5.0,5.0,58,0.00,,---,0.00,VWS V13.01,2013-04-07 19:00:00,
2013-04-07 13:05:00,46.2,33.5,29.58,NNE,14,0.0,3.0,61,0.00,,---,0.00,VWS V13.01,2013-04-07 19:05:00,
2013-04-07 13:10:00,46.4,36.4,29.58,East,84,0.0,6.0,68,0.00,,---,0.00,VWS V13.01,2013-04-07 19:10:00,
2013-04-07 13:15:00,46.2,33.5,29.58,West,267,1.0,6.0,61,0.00,,---,0.00,VWS V13.01,2013-04-07 19:15:00,
2013-04-07 13:21:00,45.4,34.3,29.60,SW,236,3.0,6.0,65,0.00,,---,0.00,VWS V13.01,2013-04-07 19:21:00,
2013-04-07 13:26:00,44.5,33.5,29.60,West,272,0.0,4.0,65,0.00,,---,0.00,VWS V13.01,2013-04-07 19:26:00,
2013-04-07 13:32:00,43.6,34.5,29.62,NNE,24,0.0,2.0,70,0.00,,---,0.00,VWS V13.01,2013-04-07 19:32:00,
2013-04-07 13:37:00,42.9,34.8,29.62,East,82,0.0,0.0,73,0.01,,---,0.01,VWS V13.01,2013-04-07 19:37:00,
2013-04-07 13:42:00,41.6,34.9,29.62,East,82,0.0,0.0,77,0.03,,---,0.03,VWS V13.01,2013-04-07 19:42:00,
2013-04-07 13:48:00,40.9,35.2,29.63,East,82,0.0,0.0,80,0.04,,---,0.04,VWS V13.01,2013-04-07 19:48:00,
2013-04-07 13:53:00,40.6,35.8,29.63,East,81,0.0,0.0,83,0.04,,---,0.04,VWS V13.01,2013-04-07 19:53:00,
2013-04-07 13:58:00,40.8,36.9,29.63,East,81,1.0,2.0,86,0.05,,---,0.05,VWS V13.01,2013-04-07 19:58:00,
2013-04-07 14:03:00,41.2,37.9,29.61,ENE,63,2.0,2.0,88,0.05,,---,0.05,VWS V13.01,2013-04-07 20:03:00,
2013-04-07 14:08:00,42.6,40.2,29.61,ENE,63,0.0,1.0,91,0.05,,---,0.05,VWS V13.01,2013-04-07 20:08:00,
2013-04-07 14:14:00,44.3,42.1,29.61,NE,55,0.0,2.0,92,0.05,,---,0.05,VWS V13.01,2013-04-07 20:14:00,
2013-04-07 14:19:00,46.5,44.6,29.59,NE,38,0.0,1.0,93,0.05,,---,0.05,VWS V13.01,2013-04-07 20:19:00,
2013-04-07 14:24:00,46.5,42.8,29.59,ENE,68,0.0,1.0,87,0.05,,---,0.05,VWS V13.01,2013-04-07 20:24:00,
2013-04-07 14:30:00,46.8,42.5,29.59,ENE,65,0.0,1.0,85,0.05,,---,0.05,VWS V13.01,2013-04-07 20:30:00,
2013-04-07 14:35:00,47.0,41.2,29.57,NE,49,0.0,2.0,80,0.05,,---,0.05,VWS V13.01,2013-04-07 20:35:00,
2013-04-07 14:40:00,47.0,41.5,29.57,NNE,18,0.0,2.0,81,0.04,,---,0.05,VWS V13.01,2013-04-07 20:40:00,
2013-04-07 14:46:00,46.7,39.9,29.56,NNW,336,0.0,2.0,77,0.03,,---,0.05,VWS V13.01,2013-04-07 20:46:00,
2013-04-07 14:51:00,46.4,38.9,29.56,WNW,296,0.0,2.0,75,0.01,,---,0.05,VWS V13.01,2013-04-07 20:51:00,
2013-04-07 14:56:00,46.2,40.1,29.56,North,360,0.0,0.0,79,0.01,,---,0.05,VWS V13.01,2013-04-07 20:56:00,
2013-04-07 15:02:00,46.4,39.9,29.57,NNE,15,0.0,1.0,78,0.01,,---,0.05,VWS V13.01,2013-04-07 21:02:00,
2013-04-07 15:07:00,47.4,40.2,29.57,West,272,0.0,1.0,76,0.00,,---,0.05,VWS V13.01,2013-04-07 21:07:00,
2013-04-07 15:12:00,47.7,39.5,29.57,West,273,0.0,0.0,73,0.00,,---,0.05,VWS V13.01,2013-04-07 21:12:00,
2013-04-07 15:17:00,47.7,39.1,29.55,West,279,0.0,0.0,72,0.00,,---,0.05,VWS V13.01,2013-04-07 21:17:00,
2013-04-07 15:22:00,47.6,39.7,29.55,West,279,0.0,0.0,74,0.00,,---,0.05,VWS V13.01,2013-04-07 21:22:00,
2013-04-07 15:28:00,47.4,38.8,29.55,WNW,285,0.0,0.0,72,0.00,,---,0.05,VWS V13.01,2013-04-07 21:28:00,
2013-04-07 15:33:00,47.3,41.1,29.55,North,349,0.0,0.0,79,0.00,,---,0.05,VWS V13.01,2013-04-07 21:33:00,
2013-04-07 15:38:00,47.3,40.8,29.55,NNE,29,0.0,3.0,78,0.00,,---,0.05,VWS V13.01,2013-04-07 21:38:00,
2013-04-07 15:44:00,47.1,39.6,29.55,NNE,29,0.0,1.0,75,0.00,,---,0.05,VWS V13.01,2013-04-07 21:44:00,
2013-04-07 15:49:00,46.7,39.2,29.55,NNE,29,0.0,0.0,75,0.00,,---,0.05,VWS V13.01,2013-04-07 21:49:00,
2013-04-07 15:54:00,46.5,41.0,29.55,NNE,29,0.0,0.0,81,0.00,,---,0.05,VWS V13.01,2013-04-07 21:54:00,
2013-04-07 15:59:00,46.2,39.7,29.55,NNW,327,0.0,2.0,78,0.00,,---,0.05,VWS V13.01,2013-04-07 21:59:00,
2013-04-07 16:05:00,46.0,39.5,29.56,NNW,334,1.0,3.0,78,0.00,,---,0.05,VWS V13.01,2013-04-07 22:05:00,
2013-04-07 16:10:00,45.7,39.2,29.56,NNW,348,0.0,0.0,78,0.00,,---,0.05,VWS V13.01,2013-04-07 22:10:00,
2013-04-07 16:15:00,45.4,39.0,29.56,NE,35,0.0,1.0,78,0.00,,---,0.05,VWS V13.01,2013-04-07 22:15:00,
2013-04-07 16:20:00,45.1,38.7,29.56,NW,313,0.0,3.0,78,0.00,,---,0.05,VWS V13.01,2013-04-07 22:20:00,
2013-04-07 16:26:00,44.6,38.2,29.56,ESE,118,2.0,3.0,78,0.00,,---,0.05,VWS V13.01,2013-04-07 22:26:00,
2013-04-07 16:31:00,43.8,37.7,29.58,NNE,29,0.0,7.0,79,0.01,,---,0.06,VWS V13.01,2013-04-07 22:31:00,
2013-04-07 16:36:00,42.9,37.2,29.58,NNE,25,0.0,0.0,80,0.02,,---,0.07,VWS V13.01,2013-04-07 22:36:00,
2013-04-07 16:42:00,42.2,37.1,29.58,WSW,246,4.0,9.0,82,0.02,,---,0.07,VWS V13.01,2013-04-07 22:42:00,
2013-04-07 16:47:00,40.9,35.8,29.61,SSW,197,2.0,8.0,82,0.02,,---,0.07,VWS V13.01,2013-04-07 22:47:00,
2013-04-07 16:52:00,39.8,35.1,29.61,NW,307,0.0,1.0,83,0.03,,---,0.08,VWS V13.01,2013-04-07 22:52:00,
2013-04-07 16:58:00,38.9,34.8,29.61,WSW,257,0.0,1.0,85,0.03,,---,0.08,VWS V13.01,2013-04-07 22:58:00,
2013-04-07 17:03:00,38.6,34.8,29.63,WSW,257,0.0,0.0,86,0.03,,---,0.08,VWS V13.01,2013-04-07 23:03:00,
2013-04-07 17:09:00,38.3,34.8,29.63,WSW,257,0.0,0.0,87,0.03,,---,0.08,VWS V13.01,2013-04-07 23:09:00,
2013-04-07 17:14:00,38.3,34.8,29.63,WSW,257,0.0,0.0,87,0.03,,---,0.08,VWS V13.01,2013-04-07 23:14:00,
2013-04-07 17:19:00,38.2,35.0,29.64,WSW,257,0.0,0.0,88,0.04,,---,0.09,VWS V13.01,2013-04-07 23:19:00,
2013-04-07 17:24:00,38.2,35.0,29.64,WSW,249,0.0,0.0,88,0.05,,---,0.10,VWS V13.01,2013-04-07 23:24:00,
2013-04-07 17:29:00,38.0,34.8,29.64,WSW,249,0.0,0.0,88,0.05,,---,0.10,VWS V13.01,2013-04-07 23:29:00,
2013-04-07 17:35:00,37.9,34.7,29.64,WSW,249,0.0,0.0,88,0.04,,---,0.10,VWS V13.01,2013-04-07 23:35:00,
2013-04-07 17:40:00,37.8,34.6,29.64,WSW,249,0.0,0.0,88,0.03,,---,0.10,VWS V13.01,2013-04-07 23:40:00,
2013-04-07 17:45:00,37.8,34.9,29.64,WSW,249,0.0,0.0,89,0.03,,---,0.10,VWS V13.01,2013-04-07 23:45:00,
2013-04-07 17:51:00,37.9,35.2,29.64,WSW,249,0.0,0.0,90,0.03,,---,0.11,VWS V13.01,2013-04-07 23:51:00,
2013-04-07 17:57:00,38.2,35.5,29.64,NW,319,0.0,0.0,90,0.03,,---,0.11,VWS V13.01,2013-04-07 23:57:00,
2013-04-07 18:02:00,38.0,35.0,29.66,NNW,340,0.0,0.0,89,0.04,,---,0.12,VWS V13.01,2013-04-08 00:02:00,
2013-04-07 18:07:00,37.9,34.7,29.66,ENE,61,2.0,2.0,88,0.05,,---,0.13,VWS V13.01,2013-04-08 00:07:00,
2013-04-07 18:13:00,37.8,34.6,29.66,ENE,61,0.0,1.0,88,0.06,,---,0.14,VWS V13.01,2013-04-08 00:13:00,
2013-04-07 18:18:00,37.6,34.4,29.67,ENE,74,0.0,5.0,88,0.06,,---,0.15,VWS V13.01,2013-04-08 00:18:00,
2013-04-07 18:23:00,37.2,34.0,29.67,NNW,348,3.0,3.0,88,0.06,,---,0.16,VWS V13.01,2013-04-08 00:23:00,
2013-04-07 18:28:00,36.8,33.3,29.67,ESE,103,0.0,0.0,87,0.06,,---,0.16,VWS V13.01,2013-04-08 00:28:00,
2013-04-07 18:33:00,36.5,33.0,29.68,West,271,1.0,5.0,87,0.07,,---,0.17,VWS V13.01,2013-04-08 00:33:00,
2013-04-07 18:39:00,36.2,32.7,29.68,NNW,335,1.0,2.0,87,0.08,,---,0.18,VWS V13.01,2013-04-08 00:39:00,
2013-04-07 18:44:00,36.0,32.8,29.68,SSW,213,1.0,6.0,88,0.08,,---,0.18,VWS V13.01,2013-04-08 00:44:00,
2013-04-07 18:49:00,35.6,32.1,29.70,NW,319,4.0,5.0,87,0.08,,---,0.18,VWS V13.01,2013-04-08 00:49:00,
2013-04-07 18:54:00,34.9,31.1,29.70,NW,324,0.0,4.0,86,0.07,,---,0.18,VWS V13.01,2013-04-08 00:54:00,
2013-04-07 19:00:00,34.0,30.5,29.70,SW,225,2.0,5.0,87,0.07,,---,0.18,VWS V13.01,2013-04-08 01:00:00,
2013-04-07 19:05:00,33.2,30.0,29.73,SW,223,0.0,5.0,88,0.06,,---,0.18,VWS V13.01,2013-04-08 01:05:00,
2013-04-07 19:10:00,32.8,29.9,29.73,NNE,29,2.0,4.0,89,0.05,,---,0.18,VWS V13.01,2013-04-08 01:10:00,
2013-04-07 19:15:00,32.7,30.1,29.75,West,259,0.0,9.0,90,0.04,,---,0.18,VWS V13.01,2013-04-08 01:15:00,
2013-04-07 19:22:00,32.4,29.8,29.75,West,265,3.0,4.0,90,0.04,,---,0.18,VWS V13.01,2013-04-08 01:22:00,
2013-04-07 19:27:00,32.1,29.5,29.75,WSW,244,3.0,5.0,90,0.02,,---,0.18,VWS V13.01,2013-04-08 01:27:00,
2013-04-07 19:33:00,32.1,29.8,29.75,WSW,244,0.0,4.0,91,0.02,,---,0.18,VWS V13.01,2013-04-08 01:33:00,
2013-04-07 19:38:00,31.9,29.6,29.75,NE,39,0.0,4.0,91,0.01,,---,0.18,VWS V13.01,2013-04-08 01:38:00,
2013-04-07 19:44:00,31.8,29.5,29.75,WSW,243,0.0,2.0,91,0.00,,---,0.18,VWS V13.01,2013-04-08 01:44:00,
2013-04-07 19:49:00,31.6,29.3,29.77,East,89,0.0,5.0,91,0.00,,---,0.18,VWS V13.01,2013-04-08 01:49:00,
2013-04-07 19:54:00,31.5,29.2,29.77,SW,224,1.0,5.0,91,0.00,,---,0.18,VWS V13.01,2013-04-08 01:54:00,
2013-04-07 20:00:00,31.2,28.9,29.77,WSW,246,0.0,5.0,91,0.00,,---,0.18,VWS V13.01,2013-04-08 02:00:00,
2013-04-07 20:05:00,31.0,28.7,29.78,West,272,0.0,5.0,91,0.00,,---,0.18,VWS V13.01,2013-04-08 02:05:00,
2013-04-07 20:10:00,30.9,28.6,29.78,WSW,257,0.0,4.0,91,0.00,,---,0.18,VWS V13.01,2013-04-08 02:10:00,
2013-04-07 20:16:00,30.6,28.3,29.78,NNE,12,0.0,6.0,91,0.00,,---,0.18,VWS V13.01,2013-04-08 02:16:00,
2013-04-07 20:21:00,30.3,28.0,29.78,North,5,0.0,7.0,91,0.00,,---,0.18,VWS V13.01,2013-04-08 02:21:00,
2013-04-07 20:26:00,30.1,27.8,29.78,West,281,3.0,4.0,91,0.00,,---,0.18,VWS V13.01,2013-04-08 02:26:00,
2013-04-07 20:31:00,30.0,27.7,29.79,West,276,5.0,5.0,91,0.00,,---,0.18,VWS V13.01,2013-04-08 02:31:00,
2013-04-07 20:38:00,29.8,27.5,29.79,WSW,248,0.0,0.0,91,0.00,,---,0.18,VWS V13.01,2013-04-08 02:38:00,
2013-04-07 20:43:00,29.7,27.4,29.79,West,263,0.0,5.0,91,0.00,,---,0.18,VWS V13.01,2013-04-08 02:43:00,
2013-04-07 20:50:00,29.5,27.2,29.81,WSW,237,0.0,0.0,91,0.00,,---,0.18,VWS V13.01,2013-04-08 02:50:00,
2013-04-07 20:55:00,29.4,27.1,29.81,WSW,252,0.0,4.0,91,0.00,,---,0.18,VWS V13.01,2013-04-08 02:55:00,
2013-04-07 21:00:00,29.4,27.1,29.81,West,261,0.0,3.0,91,0.00,,---,0.18,VWS V13.01,2013-04-08 03:00:00,
2013-04-07 21:05:00,29.3,27.0,29.83,West,270,2.0,4.0,91,0.00,,---,0.18,VWS V13.01,2013-04-08 03:05:00,
2013-04-07 21:10:00,29.3,27.0,29.83,West,259,0.0,4.0,91,0.00,,---,0.18,VWS V13.01,2013-04-08 03:10:00,
2013-04-07 21:15:00,29.3,27.0,29.83,SSW,211,1.0,2.0,91,0.00,,---,0.18,VWS V13.01,2013-04-08 03:15:00,
2013-04-07 21:21:00,29.1,26.5,29.82,SSW,192,0.0,3.0,90,0.00,,---,0.18,VWS V13.01,2013-04-08 03:21:00,
2013-04-07 21:26:00,29.1,26.5,29.82,East,86,0.0,2.0,90,0.00,,---,0.18,VWS V13.01,2013-04-08 03:26:00,
2013-04-07 21:31:00,29.0,26.4,29.83,South,169,0.0,2.0,90,0.00,,---,0.18,VWS V13.01,2013-04-08 03:31:00,
2013-04-07 21:36:00,28.8,26.2,29.83,WNW,282,0.0,3.0,90,0.00,,---,0.18,VWS V13.01,2013-04-08 03:36:00,
2013-04-07 21:42:00,28.7,26.1,29.83,SSW,197,0.0,3.0,90,0.00,,---,0.18,VWS V13.01,2013-04-08 03:42:00,
2013-04-07 21:48:00,28.5,26.0,29.84,West,260,0.0,2.0,90,0.00,,---,0.18,VWS V13.01,2013-04-08 03:48:00,
2013-04-07 21:53:00,28.4,25.9,29.84,WSW,238,1.0,3.0,90,0.00,,---,0.18,VWS V13.01,2013-04-08 03:53:00,
2013-04-07 21:58:00,28.2,25.6,29.84,WSW,249,0.0,2.0,90,0.00,,---,0.18,VWS V13.01,2013-04-08 03:58:00,
2013-04-07 22:00:00,28.1,25.5,29.84,WSW,249,0.0,2.0,90,0.00,,---,0.18,VWS V13.01,2013-04-08 04:00:00,
2013-04-07 22:02:00,28.1,25.5,29.85,SSE,167,2.0,2.0,90,0.00,,---,0.18,VWS V13.01,2013-04-08 04:02:00,
2013-04-07 22:05:00,28.1,25.5,29.85,WSW,252,0.0,4.0,90,0.00,,---,0.18,VWS V13.01,2013-04-08 04:05:00,
2013-04-07 22:11:00,27.9,25.4,29.85,West,263,0.0,1.0,90,0.00,,---,0.18,VWS V13.01,2013-04-08 04:11:00,
2013-04-07 22:16:00,27.9,25.4,29.84,WSW,254,0.0,3.0,90,0.00,,---,0.18,VWS V13.01,2013-04-08 04:16:00,
2013-04-07 22:21:00,27.8,25.2,29.84,SW,234,0.0,0.0,90,0.00,,---,0.18,VWS V13.01,2013-04-08 04:21:00,
2013-04-07 22:27:00,27.6,25.1,29.84,West,261,0.0,2.0,90,0.00,,---,0.18,VWS V13.01,2013-04-08 04:27:00,
2013-04-07 22:32:00,27.6,25.1,29.85,NW,306,1.0,1.0,90,0.00,,---,0.18,VWS V13.01,2013-04-08 04:32:00,
2013-04-07 22:37:00,27.5,25.0,29.85,WSW,243,0.0,3.0,90,0.00,,---,0.18,VWS V13.01,2013-04-08 04:37:00,
2013-04-07 22:42:00,27.3,24.5,29.85,WSW,242,0.0,2.0,89,0.00,,---,0.18,VWS V13.01,2013-04-08 04:42:00,
2013-04-07 22:48:00,27.2,24.4,29.86,West,259,0.0,1.0,89,0.00,,---,0.18,VWS V13.01,2013-04-08 04:48:00,
2013-04-07 22:53:00,27.2,24.4,29.86,West,275,0.0,0.0,89,0.00,,---,0.18,VWS V13.01,2013-04-08 04:53:00,
2013-04-07 22:58:00,27.0,24.2,29.86,SSE,166,0.0,0.0,89,0.00,,---,0.18,VWS V13.01,2013-04-08 04:58:00,
2013-04-07 23:03:00,27.0,24.2,29.86,West,273,0.0,3.0,89,0.00,,---,0.18,VWS V13.01,2013-04-08 05:03:00,
2013-04-07 23:08:00,26.9,24.1,29.86,West,259,0.0,1.0,89,0.00,,---,0.18,VWS V13.01,2013-04-08 05:08:00,
2013-04-07 23:14:00,26.7,23.9,29.86,SW,229,0.0,2.0,89,0.00,,---,0.18,VWS V13.01,2013-04-08 05:14:00,
2013-04-07 23:19:00,26.7,23.9,29.84,SW,229,0.0,1.0,89,0.00,,---,0.18,VWS V13.01,2013-04-08 05:19:00,
2013-04-07 23:24:00,26.7,23.6,29.84,WNW,289,2.0,4.0,88,0.00,,---,0.18,VWS V13.01,2013-04-08 05:24:00,
2013-04-07 23:30:00,26.6,23.5,29.84,WSW,244,0.0,0.0,88,0.00,,---,0.18,VWS V13.01,2013-04-08 05:30:00,
2013-04-07 23:35:00,26.6,23.5,29.85,WSW,237,0.0,5.0,88,0.00,,---,0.18,VWS V13.01,2013-04-08 05:35:00,
2013-04-07 23:40:00,26.4,23.1,29.85,SW,235,0.0,2.0,87,0.00,,---,0.18,VWS V13.01,2013-04-08 05:40:00,
2013-04-07 23:45:00,26.3,23.0,29.85,SW,223,1.0,4.0,87,0.00,,---,0.18,VWS V13.01,2013-04-08 05:45:00,
2013-04-07 23:51:00,26.1,22.8,29.85,WSW,245,0.0,4.0,87,0.00,,---,0.18,VWS V13.01,2013-04-08 05:51:00,
2013-04-07 23:56:00,26.0,22.4,29.85,West,260,2.0,4.0,86,0.00,,---,0.18,VWS V13.01,2013-04-08 05:56:00,